Time;durP1;ratioP1;P1;durP2;ratioP2;P2;SDS_P1;SDS_P2;PMS_P1;PMS_P2;Temp;Humidity;BMP_temperature;BMP_pressure;BME280_temperature;BME280_humidity;BME280_pressure;Samples;Min_cycle;Max_cycle;Signal;HPM_P1;HPM_P2
2023/09/23 00:00:24;;;;;;;23.80;21.98;;;15.30;99.90;;;;;;5054554;28;20033;-68
2023/09/23 00:02:51;;;;;;;20.83;19.40;;;15.30;99.90;;;;;;5055447;28;20041;-69
2023/09/23 00:05:18;;;;;;;21.33;19.70;;;15.20;99.90;;;;;;5055034;28;20053;-69
2023/09/23 00:07:44;;;;;;;23.65;22.02;;;15.20;99.90;;;;;;5055604;28;20395;-68
2023/09/23 00:10:11;;;;;;;24.20;22.35;;;15.10;99.90;;;;;;5054820;28;20048;-69
2023/09/23 00:12:40;;;;;;;23.23;21.63;;;15.10;99.90;;;;;;5053879;28;20036;-68
2023/09/23 00:15:07;;;;;;;21.52;20.17;;;15.10;99.90;;;;;;5054260;28;20052;-69
2023/09/23 00:17:36;;;;;;;26.50;24.80;;;15.10;99.90;;;;;;5054466;28;20060;-69
2023/09/23 00:20:05;;;;;;;22.90;21.48;;;15.10;99.90;;;;;;5055138;28;20037;-69
2023/09/23 00:22:34;;;;;;;25.08;23.48;;;15.20;99.90;;;;;;5054834;28;20056;-69
2023/09/23 00:25:00;;;;;;;21.85;20.48;;;15.10;99.90;;;;;;5054689;28;20025;-68
2023/09/23 00:27:27;;;;;;;21.98;20.40;;;15.10;99.90;;;;;;5054586;28;20066;-68
2023/09/23 00:29:53;;;;;;;22.27;20.77;;;15.10;99.90;;;;;;5054907;28;20475;-68
2023/09/23 00:32:21;;;;;;;22.38;20.65;;;15.10;99.90;;;;;;5053654;28;20045;-69
2023/09/23 00:34:48;;;;;;;20.00;18.35;;;15.10;99.90;;;;;;5054487;28;20021;-69
2023/09/23 00:37:15;;;;;;;30.27;28.15;;;15.00;99.90;;;;;;5049645;28;20049;-69
2023/09/23 00:39:41;;;;;;;20.70;19.20;;;15.00;99.90;;;;;;5041907;28;20029;-69
2023/09/23 00:42:12;;;;;;;24.25;22.63;;;15.00;99.90;;;;;;5052548;28;20041;-68
2023/09/23 00:44:41;;;;;;;17.58;16.17;;;15.00;99.90;;;;;;5054703;28;20048;-68
2023/09/23 00:47:13;;;;;;;19.15;17.83;;;15.00;99.90;;;;;;5053287;28;20044;-68
2023/09/23 00:49:42;;;;;;;18.83;17.20;;;15.00;99.90;;;;;;5054621;28;20029;-68
2023/09/23 00:52:08;;;;;;;20.20;18.50;;;15.00;99.90;;;;;;5052246;28;20509;-68
2023/09/23 00:54:35;;;;;;;21.30;19.40;;;15.00;99.90;;;;;;5052936;28;20032;-69
2023/09/23 00:57:03;;;;;;;19.75;18.23;;;15.00;99.90;;;;;;5053956;28;20402;-68
2023/09/23 00:59:29;;;;;;;24.02;22.35;;;14.90;99.90;;;;;;5053001;28;20048;-69
2023/09/23 01:01:56;;;;;;;19.30;17.95;;;14.90;99.90;;;;;;5053046;28;20049;-68
2023/09/23 01:04:23;;;;;;;17.35;16.10;;;14.80;99.90;;;;;;5054086;28;20041;-68
2023/09/23 01:06:49;;;;;;;24.13;22.58;;;14.80;99.90;;;;;;5053749;28;20040;-69
2023/09/23 01:09:20;;;;;;;26.88;25.08;;;14.70;99.90;;;;;;5053966;28;20471;-69
2023/09/23 01:11:47;;;;;;;24.75;23.05;;;14.70;99.90;;;;;;5052303;28;20044;-68
2023/09/23 01:14:13;;;;;;;23.30;21.77;;;14.60;99.90;;;;;;5052610;28;20052;-68
2023/09/23 01:16:41;;;;;;;23.25;21.73;;;14.60;99.90;;;;;;5052717;28;20040;-69
2023/09/23 01:19:09;;;;;;;22.13;20.52;;;14.60;99.90;;;;;;5054056;28;20055;-73
2023/09/23 01:21:35;;;;;;;22.52;21.00;;;14.60;99.90;;;;;;5053491;28;20048;-73
2023/09/23 01:24:01;;;;;;;19.35;17.88;;;14.60;99.90;;;;;;5053836;28;20464;-73
2023/09/23 01:26:27;;;;;;;17.60;16.30;;;14.50;99.90;;;;;;5053195;28;20056;-73
2023/09/23 01:28:54;;;;;;;16.20;14.88;;;14.50;99.90;;;;;;5053697;28;20035;-73
2023/09/23 01:31:22;;;;;;;15.20;14.02;;;14.40;99.90;;;;;;5052535;28;20036;-73
2023/09/23 01:33:48;;;;;;;16.02;14.60;;;14.40;99.90;;;;;;5053724;28;20053;-73
2023/09/23 01:36:14;;;;;;;19.58;18.27;;;14.50;99.90;;;;;;5053397;28;20051;-73
2023/09/23 01:38:41;;;;;;;17.70;16.42;;;14.50;99.90;;;;;;5053261;28;20033;-74
2023/09/23 01:41:07;;;;;;;17.27;16.02;;;14.40;99.90;;;;;;5051790;28;20037;-73
2023/09/23 01:43:33;;;;;;;14.80;13.50;;;14.40;99.90;;;;;;5053262;28;20040;-73
2023/09/23 01:46:03;;;;;;;15.98;14.70;;;14.40;99.90;;;;;;5052289;28;20032;-73
2023/09/23 01:48:30;;;;;;;14.57;13.48;;;14.30;99.90;;;;;;5053036;28;20040;-74
2023/09/23 01:50:58;;;;;;;15.30;13.90;;;14.30;99.90;;;;;;5053097;28;20518;-73
2023/09/23 01:53:26;;;;;;;15.93;14.57;;;14.30;99.90;;;;;;5053463;28;20049;-73
2023/09/23 01:55:52;;;;;;;15.35;14.05;;;14.30;99.90;;;;;;5051214;28;20479;-73
2023/09/23 01:58:19;;;;;;;16.15;14.95;;;14.20;99.90;;;;;;5052652;28;20055;-73
2023/09/23 02:00:46;;;;;;;17.55;16.13;;;14.20;99.90;;;;;;5052791;28;20025;-73
2023/09/23 02:03:13;;;;;;;16.30;15.00;;;14.30;99.90;;;;;;5052925;28;20037;-73
2023/09/23 02:05:39;;;;;;;13.65;12.80;;;14.20;99.90;;;;;;5052868;28;20045;-73
2023/09/23 02:08:05;;;;;;;16.33;15.10;;;14.10;99.90;;;;;;5052579;28;20403;-74
2023/09/23 02:10:31;;;;;;;19.75;18.55;;;14.20;99.90;;;;;;5052689;28;20033;-74
2023/09/23 02:12:58;;;;;;;20.25;18.95;;;14.20;99.90;;;;;;5052582;28;20044;-74
2023/09/23 02:15:24;;;;;;;20.55;19.23;;;14.20;99.90;;;;;;5052105;28;20041;-73
2023/09/23 02:17:51;;;;;;;20.00;18.60;;;14.30;99.90;;;;;;5052738;28;20037;-73
2023/09/23 02:20:22;;;;;;;21.23;19.83;;;14.30;99.90;;;;;;5052431;28;20063;-73
2023/09/23 02:22:50;;;;;;;17.40;16.00;;;14.30;99.90;;;;;;5052983;28;20425;-69
2023/09/23 02:25:16;;;;;;;19.20;17.98;;;14.30;99.90;;;;;;5052080;28;20040;-68
2023/09/23 02:27:44;;;;;;;17.05;15.95;;;14.30;99.90;;;;;;5052574;28;20033;-69
2023/09/23 02:30:11;;;;;;;16.60;15.65;;;14.30;99.90;;;;;;5051833;28;20052;-69
2023/09/23 02:32:41;;;;;;;20.92;19.30;;;14.20;99.90;;;;;;5032567;28;20063;-69
2023/09/23 02:35:11;;;;;;;18.05;16.60;;;14.20;99.90;;;;;;5031975;28;20488;-69
2023/09/23 02:37:41;;;;;;;17.65;16.35;;;14.10;99.90;;;;;;5040669;28;20044;-69
2023/09/23 02:40:17;;;;;;;14.73;13.52;;;14.10;99.90;;;;;;5050946;28;20021;-69
2023/09/23 02:42:45;;;;;;;16.30;15.20;;;14.10;99.90;;;;;;5032255;28;20040;-69
2023/09/23 02:45:13;;;;;;;16.90;15.48;;;14.10;99.90;;;;;;5032130;28;20048;-68
2023/09/23 02:47:41;;;;;;;15.52;14.43;;;14.20;99.90;;;;;;5052773;28;20033;-68
2023/09/23 02:50:09;;;;;;;19.20;17.83;;;14.10;99.90;;;;;;5052332;28;20033;-69
2023/09/23 02:52:39;;;;;;;15.60;14.18;;;14.10;99.90;;;;;;5051925;28;20049;-69
2023/09/23 02:55:07;;;;;;;18.20;16.48;;;14.10;99.90;;;;;;5052042;28;20024;-68
2023/09/23 02:57:37;;;;;;;21.27;19.90;;;14.00;99.90;;;;;;5051368;28;20483;-69
2023/09/23 03:00:16;;;;;;;18.25;16.65;;;13.90;99.90;;;;;;5051720;28;20107;-69
2023/09/23 03:02:48;;;;;;;22.77;21.15;;;13.90;99.90;;;;;;5052351;28;20395;-68
2023/09/23 03:05:16;;;;;;;18.95;17.40;;;13.90;99.90;;;;;;5052069;28;20091;-68
2023/09/23 03:07:43;;;;;;;17.48;15.93;;;13.90;99.90;;;;;;5052062;28;20056;-68
2023/09/23 03:10:13;;;;;;;18.52;17.10;;;14.00;99.90;;;;;;5052373;28;20037;-68
2023/09/23 03:12:51;;;;;;;18.08;16.55;;;14.00;99.90;;;;;;5031871;28;20637;-69
2023/09/23 03:15:22;;;;;;;16.20;14.80;;;13.90;99.90;;;;;;5032126;28;20046;-68
2023/09/23 03:17:51;;;;;;;;;;;13.90;99.90;;;;;;5054069;28;20522;-68
2023/09/23 03:20:21;;;;;;;16.02;14.82;;;13.90;99.90;;;;;;5056190;28;19912;-69
2023/09/23 03:22:49;;;;;;;18.52;17.10;;;13.90;99.90;;;;;;5056310;28;20044;-68
2023/09/23 03:25:17;;;;;;;15.95;14.80;;;13.90;99.90;;;;;;5053865;28;20594;-68
2023/09/23 03:27:43;;;;;;;15.52;14.27;;;13.90;99.90;;;;;;5055746;28;20077;-69
2023/09/23 03:30:12;;;;;;;18.25;16.77;;;13.90;99.90;;;;;;5070567;28;20044;-69
2023/09/23 03:32:38;;;;;;;18.50;17.15;;;13.80;99.90;;;;;;5035949;28;20073;-69
2023/09/23 03:35:07;;;;;;;20.92;19.23;;;13.80;99.90;;;;;;5035747;28;20388;-68
2023/09/23 03:37:35;;;;;;;18.50;16.88;;;13.80;99.90;;;;;;5047790;28;20124;-69
2023/09/23 03:40:07;;;;;;;20.75;18.67;;;13.80;99.90;;;;;;5046032;28;20064;-73
2023/09/23 03:42:34;;;;;;;21.48;19.92;;;13.70;99.90;;;;;;5055289;28;20040;-73
2023/09/23 03:45:03;;;;;;;17.42;16.02;;;13.70;99.90;;;;;;5055794;28;20041;-74
2023/09/23 03:47:29;;;;;;;19.98;18.23;;;13.70;99.90;;;;;;5054964;28;20048;-73
2023/09/23 03:49:56;;;;;;;20.60;18.85;;;13.70;99.90;;;;;;5055600;28;20360;-73
2023/09/23 03:52:23;;;;;;;21.17;19.73;;;13.70;99.90;;;;;;5055313;28;20048;-73
2023/09/23 03:54:49;;;;;;;18.55;17.08;;;13.60;99.90;;;;;;5055229;28;20049;-73
2023/09/23 03:57:16;;;;;;;17.73;16.05;;;13.60;99.90;;;;;;5055065;28;20032;-73
2023/09/23 03:59:42;;;;;;;19.42;18.13;;;13.60;99.90;;;;;;5055626;28;20029;-73
2023/09/23 04:02:08;;;;;;;18.52;16.70;;;13.50;99.90;;;;;;5054729;28;20389;-73
2023/09/23 04:04:37;;;;;;;15.75;14.27;;;13.50;99.90;;;;;;5055057;28;20029;-72
2023/09/23 04:07:06;;;;;;;16.77;14.80;;;13.50;99.90;;;;;;5055146;28;20045;-73
2023/09/23 04:09:33;;;;;;;14.93;13.63;;;13.40;99.90;;;;;;5054883;28;20399;-72
2023/09/23 04:12:04;;;;;;;17.77;16.20;;;13.40;99.90;;;;;;5055059;28;20056;-73
2023/09/23 04:14:30;;;;;;;;;;;13.40;99.90;;;;;;5055534;28;20053;-73
2023/09/23 04:16:56;;;;;;;16.30;15.10;;;13.40;99.90;;;;;;5054481;28;19913;-72
2023/09/23 04:19:23;;;;;;;15.70;14.25;;;13.40;99.90;;;;;;5054948;28;20088;-73
2023/09/23 04:21:49;;;;;;;17.38;15.90;;;13.40;99.90;;;;;;5055094;28;20502;-73
2023/09/23 04:24:15;;;;;;;17.10;14.55;;;13.40;99.90;;;;;;5054453;28;20040;-73
2023/09/23 04:26:41;;;;;;;16.02;14.77;;;13.40;99.90;;;;;;5054497;28;20037;-72
2023/09/23 04:29:07;;;;;;;14.60;13.27;;;13.40;99.90;;;;;;5054130;28;20471;-73
2023/09/23 04:31:36;;;;;;;15.85;13.93;;;13.40;99.90;;;;;;5053876;28;20047;-73
2023/09/23 04:34:02;;;;;;;14.27;13.13;;;13.30;99.90;;;;;;5054266;28;20479;-72
2023/09/23 04:36:28;;;;;;;15.18;13.90;;;13.30;99.90;;;;;;5069385;28;20025;-72
2023/09/23 04:38:54;;;;;;;16.05;14.68;;;13.30;99.90;;;;;;5054236;28;20048;-73
2023/09/23 04:41:20;;;;;;;14.18;13.00;;;13.30;99.90;;;;;;5054248;28;20459;-73
2023/09/23 04:43:47;;;;;;;14.98;13.55;;;13.30;99.90;;;;;;5054503;28;20025;-73
2023/09/23 04:46:17;;;;;;;14.60;12.40;;;13.30;99.90;;;;;;5053518;28;20491;-72
2023/09/23 04:48:43;;;;;;;15.18;13.93;;;13.30;99.90;;;;;;5054639;28;20048;-69
2023/09/23 04:51:09;;;;;;;15.35;13.85;;;13.20;99.90;;;;;;5054153;28;20049;-68
2023/09/23 04:53:35;;;;;;;13.63;12.55;;;13.20;99.90;;;;;;5054162;28;20535;-69
2023/09/23 04:56:08;;;;;;;16.83;14.95;;;13.20;99.90;;;;;;5053710;28;20032;-68
2023/09/23 04:58:35;;;;;;;15.45;14.23;;;13.20;99.90;;;;;;5054192;28;20021;-69
2023/09/23 05:01:01;;;;;;;15.88;14.60;;;13.10;99.90;;;;;;5053331;28;20037;-69
2023/09/23 05:03:27;;;;;;;15.50;14.40;;;13.10;99.90;;;;;;5054722;28;20033;-69
2023/09/23 05:05:53;;;;;;;16.60;15.10;;;13.10;99.90;;;;;;5053698;28;20029;-69
2023/09/23 05:08:19;;;;;;;16.13;14.77;;;13.10;99.90;;;;;;5053663;28;20044;-69
2023/09/23 05:10:45;;;;;;;16.85;15.27;;;13.00;99.90;;;;;;5053839;28;20037;-68
2023/09/23 05:13:12;;;;;;;17.25;16.00;;;13.00;99.90;;;;;;5054161;28;20395;-68
2023/09/23 05:15:38;;;;;;;17.83;16.35;;;13.00;99.90;;;;;;5053408;28;20044;-69
2023/09/23 05:18:05;;;;;;;19.70;17.95;;;13.00;99.90;;;;;;5053835;28;20356;-68
2023/09/23 05:20:33;;;;;;;17.45;15.80;;;13.10;99.90;;;;;;5053290;28;20025;-69
2023/09/23 05:23:01;;;;;;;17.42;16.13;;;13.00;99.90;;;;;;5053721;28;20041;-68
2023/09/23 05:25:28;;;;;;;18.75;17.33;;;12.90;99.90;;;;;;5052840;28;20044;-69
2023/09/23 05:27:55;;;;;;;17.08;15.80;;;12.80;99.90;;;;;;5052577;28;20041;-69
2023/09/23 05:30:21;;;;;;;16.70;15.48;;;12.80;99.90;;;;;;5053348;28;20045;-70
2023/09/23 05:32:48;;;;;;;17.02;15.38;;;12.90;99.90;;;;;;5053581;28;20036;-68
2023/09/23 05:35:14;;;;;;;14.65;13.57;;;12.90;99.90;;;;;;5053423;28;20029;-69
2023/09/23 05:37:40;;;;;;;14.95;13.77;;;13.00;99.90;;;;;;5052060;28;20044;-69
2023/09/23 05:40:29;;;;;;;15.55;14.10;;;12.90;99.90;;;;;;5053518;28;20403;-69
2023/09/23 05:42:53;;;;;;;16.98;15.80;;;12.90;99.90;;;;;;5051209;28;20044;-69
2023/09/23 05:45:26;;;;;;;15.30;14.15;;;12.90;99.90;;;;;;5051653;28;20037;-68
2023/09/23 05:47:52;;;;;;;15.30;14.13;;;12.90;99.90;;;;;;5053294;28;20025;-69
2023/09/23 05:50:20;;;;;;;16.83;15.35;;;12.80;99.90;;;;;;5053012;28;20052;-68
2023/09/23 05:52:46;;;;;;;16.98;15.88;;;12.70;99.90;;;;;;5052006;28;20049;-69
2023/09/23 05:55:13;;;;;;;17.27;15.95;;;12.70;99.90;;;;;;5051779;28;20059;-69
2023/09/23 05:57:40;;;;;;;23.98;22.33;;;12.60;99.90;;;;;;5053110;28;20040;-69
2023/09/23 06:00:10;;;;;;;35.08;32.72;;;12.70;99.90;;;;;;5051393;28;20037;-68
2023/09/23 06:02:37;;;;;;;33.50;31.47;;;12.60;99.90;;;;;;5051254;28;20029;-69
2023/09/23 06:05:03;;;;;;;33.03;30.95;;;12.60;99.90;;;;;;5052489;28;20264;-69
2023/09/23 06:07:31;;;;;;;37.35;34.83;;;12.70;99.90;;;;;;5053105;28;20395;-68
2023/09/23 06:09:59;;;;;;;34.78;32.53;;;12.60;99.90;;;;;;5052811;28;20044;-69
2023/09/23 06:12:32;;;;;;;31.58;29.45;;;12.60;99.90;;;;;;5053003;28;20060;-73
2023/09/23 06:15:01;;;;;;;35.20;33.10;;;12.60;99.90;;;;;;5052698;28;20068;-72
2023/09/23 06:17:27;;;;;;;31.25;29.08;;;12.50;99.90;;;;;;5052136;28;20045;-72
2023/09/23 06:19:56;;;;;;;34.85;32.75;;;12.50;99.90;;;;;;5052772;28;20047;-72
2023/09/23 06:22:23;;;;;;;31.20;29.05;;;12.60;99.90;;;;;;5052996;28;20388;-72
2023/09/23 06:24:52;;;;;;;34.08;31.90;;;12.60;99.90;;;;;;5052671;28;20029;-73
2023/09/23 06:27:19;;;;;;;38.38;36.03;;;12.70;99.90;;;;;;5052583;28;20033;-72
2023/09/23 06:29:45;;;;;;;38.90;36.58;;;12.60;99.90;;;;;;5052747;28;20048;-72
2023/09/23 06:32:15;;;;;;;40.17;37.60;;;12.70;99.90;;;;;;5052099;28;20044;-71
2023/09/23 06:34:41;;;;;;;43.65;40.92;;;12.70;99.90;;;;;;5052263;28;20037;-73
2023/09/23 06:37:07;;;;;;;48.10;45.30;;;12.70;99.90;;;;;;5052347;28;20407;-72
2023/09/23 06:39:33;;;;;;;37.75;35.15;;;12.80;99.90;;;;;;5052250;28;20033;-72
2023/09/23 06:41:59;;;;;;;45.55;42.72;;;13.00;99.90;;;;;;5052438;28;20036;-73
2023/09/23 06:44:25;;;;;;;52.78;49.30;;;13.20;99.90;;;;;;5052791;28;20037;-72
2023/09/23 06:46:51;;;;;;;63.78;60.33;;;13.50;99.90;;;;;;5051661;28;20037;-71
2023/09/23 06:49:18;;;;;;;34.92;32.47;;;13.60;99.90;;;;;;5052207;28;20033;-73
2023/09/23 06:51:44;;;;;;;37.00;34.45;;;13.80;99.90;;;;;;5051991;28;20041;-73
2023/09/23 06:54:10;;;;;;;48.00;45.13;;;13.90;99.90;;;;;;5052058;28;20048;-73
2023/09/23 06:56:37;;;;;;;41.90;39.08;;;14.20;99.90;;;;;;5052183;28;20025;-72
2023/09/23 06:59:03;;;;;;;59.10;55.67;;;14.40;99.90;;;;;;5052214;28;20476;-72
2023/09/23 07:01:29;;;;;;;58.53;55.05;;;14.60;99.90;;;;;;5051540;28;20041;-72
2023/09/23 07:03:55;;;;;;;67.00;62.88;;;14.80;99.90;;;;;;5051655;28;20089;-73
2023/09/23 07:06:21;;;;;;;106.60;100.88;;;15.00;99.90;;;;;;5051988;28;20036;-73
2023/09/23 07:08:48;;;;;;;102.88;97.22;;;15.20;99.90;;;;;;5052285;28;20040;-73
2023/09/23 07:11:14;;;;;;;123.75;117.25;;;15.40;99.90;;;;;;5051986;28;20391;-72
2023/09/23 07:13:40;;;;;;;55.83;52.47;;;15.60;99.90;;;;;;5051988;28;20049;-69
2023/09/23 07:16:11;;;;;;;111.60;105.70;;;15.80;99.90;;;;;;5051517;28;20034;-69
2023/09/23 07:18:37;;;;;;;88.05;83.10;;;16.00;99.90;;;;;;5051640;28;20032;-69
2023/09/23 07:21:03;;;;;;;77.50;73.13;;;16.20;99.90;;;;;;5051533;28;20033;-69
2023/09/23 07:23:30;;;;;;;94.43;89.30;;;16.30;99.90;;;;;;5052013;28;20040;-69
2023/09/23 07:25:56;;;;;;;125.10;118.68;;;16.30;99.90;;;;;;5050613;28;20040;-69
2023/09/23 07:28:22;;;;;;;148.23;140.82;;;16.60;99.90;;;;;;5051395;28;20049;-69
2023/09/23 07:30:48;;;;;;;122.45;116.07;;;16.70;99.90;;;;;;5051469;28;20403;-69
2023/09/23 07:33:14;;;;;;;91.50;86.65;;;16.90;99.90;;;;;;5051323;28;20057;-69
2023/09/23 07:35:40;;;;;;;104.72;98.97;;;17.10;99.90;;;;;;5051991;28;20029;-69
2023/09/23 07:38:06;;;;;;;77.60;73.50;;;17.30;99.90;;;;;;5051952;28;20502;-69
2023/09/23 07:40:32;;;;;;;93.05;88.32;;;17.50;99.90;;;;;;5051634;28;20037;-69
2023/09/23 07:42:58;;;;;;;86.85;82.43;;;17.60;99.90;;;;;;5051746;28;20036;-69
2023/09/23 07:45:24;;;;;;;147.50;139.70;;;17.70;99.90;;;;;;5051285;28;20025;-69
2023/09/23 07:47:51;;;;;;;120.82;114.65;;;17.80;99.90;;;;;;5049867;28;20032;-69
2023/09/23 07:50:17;;;;;;;82.45;77.90;;;17.90;99.90;;;;;;5052126;28;20037;-69
2023/09/23 07:52:43;;;;;;;71.57;67.47;;;17.90;99.90;;;;;;5051584;28;20032;-69
2023/09/23 07:55:10;;;;;;;89.63;84.68;;;18.10;99.90;;;;;;5051569;28;20037;-69
2023/09/23 07:57:36;;;;;;;105.57;99.78;;;18.20;99.90;;;;;;5051602;28;20044;-69
2023/09/23 08:00:04;;;;;;;100.20;94.88;;;18.30;99.90;;;;;;5051213;28;20044;-69
2023/09/23 08:02:30;;;;;;;145.32;137.77;;;18.50;99.90;;;;;;5051080;28;20494;-69
2023/09/23 08:04:56;;;;;;;99.50;94.30;;;18.70;99.90;;;;;;5052703;28;20085;-69
2023/09/23 08:07:22;;;;;;;94.55;89.50;;;18.90;99.90;;;;;;5055156;28;20092;-69
2023/09/23 08:09:48;;;;;;;80.05;75.32;;;19.00;99.90;;;;;;5055030;28;20029;-69
2023/09/23 08:12:14;;;;;;;65.60;62.05;;;19.10;99.90;;;;;;5054975;28;20025;-69
2023/09/23 08:14:41;;;;;;;74.15;69.90;;;19.30;99.90;;;;;;5054948;28;20072;-69
2023/09/23 08:17:07;;;;;;;88.00;83.25;;;19.40;99.90;;;;;;5052710;28;20033;-69
2023/09/23 08:19:33;;;;;;;101.18;95.68;;;19.40;99.90;;;;;;5054876;28;20029;-69
2023/09/23 08:21:59;;;;;;;104.90;98.97;;;19.40;99.90;;;;;;5055104;28;20033;-69
2023/09/23 08:24:25;;;;;;;91.95;86.50;;;19.40;99.90;;;;;;5054848;28;20387;-69
2023/09/23 08:26:53;;;;;;;107.32;101.40;;;19.40;99.90;;;;;;5052948;28;20021;-69
2023/09/23 08:29:20;;;;;;;84.47;79.85;;;19.50;99.90;;;;;;5055014;28;20399;-69
2023/09/23 08:31:46;;;;;;;84.95;80.15;;;19.60;99.90;;;;;;5053766;28;20025;-70
2023/09/23 08:34:12;;;;;;;100.32;94.53;;;19.70;99.90;;;;;;5054650;28;20037;-69
2023/09/23 08:36:38;;;;;;;91.75;86.78;;;19.70;99.90;;;;;;5054620;28;20051;-69
2023/09/23 08:39:09;;;;;;;105.07;99.60;;;19.80;99.90;;;;;;5034775;28;20034;-69
2023/09/23 08:41:38;;;;;;;96.07;90.63;;;19.70;99.90;;;;;;5034542;28;20033;-68
2023/09/23 08:44:05;;;;;;;119.18;112.65;;;19.60;99.90;;;;;;5032533;28;20029;-69
2023/09/23 08:46:32;;;;;;;100.22;95.03;;;19.60;99.90;;;;;;5033787;28;20037;-69
2023/09/23 08:49:01;;;;;;;104.80;99.05;;;19.60;99.90;;;;;;5049962;28;20033;-69
2023/09/23 08:51:27;;;;;;;104.25;98.90;;;19.60;99.90;;;;;;5034460;28;20036;-69
2023/09/23 08:53:54;;;;;;;116.85;110.63;;;19.70;99.90;;;;;;5034338;28;20041;-69
2023/09/23 08:56:23;;;;;;;109.18;103.28;;;19.80;99.90;;;;;;5034109;28;20053;-69
2023/09/23 08:58:49;;;;;;;109.82;103.82;;;19.90;99.90;;;;;;5034198;28;20025;-69
2023/09/23 09:01:16;;;;;;;95.47;90.25;;;19.80;99.90;;;;;;5034128;28;20025;-69
2023/09/23 09:03:44;;;;;;;115.40;109.18;;;19.80;99.90;;;;;;5034603;28;20038;-69
2023/09/23 09:06:21;;;;;;;119.82;113.55;;;19.90;99.90;;;;;;5034068;28;20496;-69
2023/09/23 09:08:47;;;;;;;115.15;108.90;;;19.90;99.90;;;;;;5034420;28;20033;-69
2023/09/23 09:11:21;;;;;;;113.97;107.80;;;20.10;99.90;;;;;;5033832;28;20487;-69
2023/09/23 09:13:47;;;;;;;117.15;111.13;;;20.10;99.90;;;;;;5033968;28;20057;-69
2023/09/23 09:16:13;;;;;;;127.55;120.78;;;20.10;99.90;;;;;;5033312;28;20396;-69
2023/09/23 09:18:40;;;;;;;124.65;118.30;;;20.00;99.90;;;;;;5034119;28;20056;-69
2023/09/23 09:21:08;;;;;;;132.80;125.70;;;20.00;99.90;;;;;;5033716;28;20392;-69
2023/09/23 09:23:38;;;;;;;139.98;132.48;;;20.00;99.90;;;;;;5033480;28;20045;-70
2023/09/23 09:26:04;;;;;;;140.95;133.57;;;19.90;99.90;;;;;;5034044;28;20400;-69
2023/09/23 09:28:30;;;;;;;142.00;134.50;;;20.00;99.90;;;;;;5033489;28;20415;-69
2023/09/23 09:30:57;;;;;;;126.00;119.07;;;20.10;99.90;;;;;;5033184;28;20368;-69
2023/09/23 09:33:27;;;;;;;146.05;138.20;;;19.90;99.90;;;;;;5037019;28;20036;-69
2023/09/23 09:35:56;;;;;;;142.07;134.60;;;20.00;99.90;;;;;;5052054;28;20048;-69
2023/09/23 09:38:25;;;;;;;142.70;135.23;;;20.00;99.90;;;;;;5053339;28;20025;-69
2023/09/23 09:41:14;;;;;;;131.27;124.20;;;20.00;99.90;;;;;;5053350;28;20491;-69
2023/09/23 09:43:40;;;;;;;143.25;136.00;;;20.00;99.90;;;;;;5051787;28;20383;-69
2023/09/23 09:46:08;;;;;;;156.02;147.75;;;20.10;99.90;;;;;;5051695;28;20036;-69
2023/09/23 09:48:38;;;;;;;139.82;132.13;;;20.00;99.90;;;;;;5035489;28;20048;-69
2023/09/23 09:51:07;;;;;;;146.40;138.35;;;19.90;99.90;;;;;;5053589;28;20029;-69
2023/09/23 09:53:36;;;;;;;170.43;161.02;;;19.90;99.90;;;;;;5053033;28;20055;-69
2023/09/23 09:56:04;;;;;;;176.00;166.75;;;19.90;99.90;;;;;;5035665;28;20044;-73
2023/09/23 09:58:37;;;;;;;185.63;175.73;;;19.90;99.90;;;;;;5052681;28;20064;-73
2023/09/23 10:01:04;;;;;;;181.48;172.00;;;19.90;99.90;;;;;;5052952;28;20544;-73
2023/09/23 10:03:30;;;;;;;189.45;179.85;;;19.80;99.90;;;;;;5053524;28;20033;-73
2023/09/23 10:05:59;;;;;;;141.68;134.32;;;19.80;99.90;;;;;;5053124;28;20032;-73
2023/09/23 10:08:34;;;;;;;149.10;141.45;;;19.80;99.90;;;;;;5053185;28;20037;-73
2023/09/23 10:11:04;;;;;;;123.70;117.20;;;19.90;99.90;;;;;;5052805;28;20021;-73
2023/09/23 10:13:33;;;;;;;109.25;103.68;;;19.90;99.90;;;;;;5052639;28;20048;-71
2023/09/23 10:16:11;;;;;;;107.50;101.85;;;19.80;99.90;;;;;;5052796;28;20491;-73
2023/09/23 10:18:39;;;;;;;108.13;102.10;;;19.70;99.90;;;;;;5053456;28;20493;-73
2023/09/23 10:21:06;;;;;;;121.38;115.07;;;19.70;99.90;;;;;;5052651;28;20036;-73
2023/09/23 10:23:35;;;;;;;103.43;98.00;;;19.70;99.90;;;;;;5052695;28;20025;-73
2023/09/23 10:26:14;;;;;;;108.43;103.00;;;19.70;99.50;;;;;;5052445;28;20025;-73
2023/09/23 10:28:41;;;;;;;112.22;106.03;;;19.70;99.80;;;;;;5052657;28;20379;-73
2023/09/23 10:31:07;;;;;;;110.15;104.03;;;19.70;99.50;;;;;;5052141;28;20025;-73
2023/09/23 10:33:36;;;;;;;102.60;97.28;;;19.60;99.80;;;;;;5052369;28;20052;-73
2023/09/23 10:36:03;;;;;;;112.70;106.53;;;19.60;99.90;;;;;;5052609;28;20033;-73
2023/09/23 10:38:35;;;;;;;100.00;94.57;;;19.70;99.90;;;;;;5052329;28;20041;-74
2023/09/23 10:41:01;;;;;;;114.47;108.60;;;19.80;99.90;;;;;;5051523;28;20048;-73
2023/09/23 10:43:27;;;;;;;108.30;102.55;;;19.80;98.90;;;;;;5052411;28;20048;-73
2023/09/23 10:45:54;;;;;;;108.15;102.43;;;19.70;99.90;;;;;;5051743;28;20044;-73
2023/09/23 10:48:20;;;;;;;104.43;99.05;;;19.80;99.60;;;;;;5052378;28;20365;-74
2023/09/23 10:50:47;;;;;;;130.27;123.72;;;19.90;99.60;;;;;;5052401;28;20041;-73
2023/09/23 10:53:13;;;;;;;129.93;123.13;;;19.90;98.70;;;;;;5052303;28;20029;-73
2023/09/23 10:55:39;;;;;;;127.57;120.72;;;19.90;97.70;;;;;;5051378;28;20041;-73
2023/09/23 10:58:09;;;;;;;122.60;116.47;;;19.80;98.40;;;;;;5052020;28;20033;-73
2023/09/23 11:00:36;;;;;;;181.68;172.32;;;19.80;98.60;;;;;;5051538;28;20426;-73
2023/09/23 11:03:13;;;;;;;174.15;165.30;;;19.80;96.50;;;;;;5051037;28;20025;-73
2023/09/23 11:05:43;;;;;;;144.88;137.45;;;19.80;96.70;;;;;;5051943;28;20502;-73
2023/09/23 11:08:13;;;;;;;137.18;129.93;;;19.90;97.50;;;;;;5052180;28;20394;-72
2023/09/23 11:10:43;;;;;;;144.77;137.20;;;20.00;97.80;;;;;;5051230;28;20112;-72
2023/09/23 11:13:10;;;;;;;142.80;135.40;;;20.00;98.00;;;;;;5052065;28;20387;-69
2023/09/23 11:15:38;;;;;;;148.95;141.25;;;20.10;98.10;;;;;;5051126;28;20045;-70
2023/09/23 11:18:07;;;;;;;128.02;121.32;;;20.10;97.90;;;;;;5051697;28;20049;-70
2023/09/23 11:20:34;;;;;;;150.10;142.52;;;20.00;97.50;;;;;;5051372;28;20049;-68
2023/09/23 11:23:05;;;;;;;154.55;146.75;;;20.00;96.60;;;;;;5052047;28;20052;-69
2023/09/23 11:25:44;;;;;;;153.38;145.45;;;20.00;97.10;;;;;;5051490;28;20036;-69
2023/09/23 11:28:24;;;;;;;171.57;163.00;;;20.00;97.80;;;;;;5051926;28;20397;-69
2023/09/23 11:30:51;;;;;;;160.50;152.30;;;19.80;95.40;;;;;;5050038;28;20040;-69
2023/09/23 11:33:17;;;;;;;183.15;174.15;;;19.60;95.40;;;;;;5051276;28;20044;-69
2023/09/23 11:35:44;;;;;;;113.60;107.72;;;19.50;95.10;;;;;;5051629;28;20033;-69
2023/09/23 11:38:10;;;;;;;100.85;95.38;;;19.60;96.60;;;;;;5051272;28;20383;-69
2023/09/23 11:40:36;;;;;;;148.77;141.15;;;19.70;97.10;;;;;;5052920;28;20048;-69
2023/09/23 11:43:03;;;;;;;118.40;112.20;;;19.70;95.90;;;;;;5055551;28;20040;-69
2023/09/23 11:45:29;;;;;;;110.53;104.55;;;19.60;96.90;;;;;;5055435;28;20399;-69
2023/09/23 11:47:56;;;;;;;118.72;112.68;;;19.60;96.90;;;;;;5055454;28;20021;-69
2023/09/23 11:50:29;;;;;;;110.53;104.85;;;19.70;96.60;;;;;;5055397;28;20506;-69
2023/09/23 11:52:55;;;;;;;141.77;134.45;;;19.60;97.10;;;;;;5053882;28;20041;-69
2023/09/23 11:55:26;;;;;;;103.68;98.35;;;19.60;95.80;;;;;;5055571;28;20503;-69
2023/09/23 11:57:54;;;;;;;150.73;143.00;;;19.70;96.40;;;;;;5054883;28;20028;-69
2023/09/23 12:00:20;;;;;;;107.63;102.00;;;19.80;96.20;;;;;;5054168;28;20111;-69
2023/09/23 12:02:48;;;;;;;107.72;102.20;;;19.90;96.50;;;;;;5055389;28;20025;-69
2023/09/23 12:05:17;;;;;;;143.63;136.38;;;20.00;96.90;;;;;;5055398;28;20040;-69
2023/09/23 12:07:43;;;;;;;281.02;267.58;;;20.10;96.90;;;;;;5054941;28;20032;-69
2023/09/23 12:10:10;;;;;;;260.95;248.50;;;20.10;94.10;;;;;;5055148;28;20391;-69
2023/09/23 12:12:38;;;;;;;258.95;246.57;;;19.80;93.10;;;;;;5055421;28;20060;-69
2023/09/23 12:15:08;;;;;;;198.18;188.23;;;19.60;93.70;;;;;;5054332;28;20480;-69
2023/09/23 12:17:35;;;;;;;176.57;167.85;;;19.70;94.80;;;;;;5055776;28;20475;-69
2023/09/23 12:20:02;;;;;;;127.90;121.28;;;19.80;94.50;;;;;;5054982;28;20056;-69
2023/09/23 12:22:28;;;;;;;249.48;237.43;;;19.80;95.40;;;;;;5054887;28;20033;-69